Terminal Aerodrome Forecast
Issued by NWS Charleston, WV

Home | Current Version | Previous Version | Text Only | Print | Product List | Glossary On
Versions: 1 2 3 4 5 6 7 8 9 10 11 12 13 14 15 16 17 18 19 20 21
000
FTUS41 KRLX 051700 RRA
TAFCRW
TAF
KCRW 051746Z 0518/0618 25006KT P6SM SCT045
      TEMPO 0518/0522 BKN040
     FM060100 00000KT P6SM SCT070
     FM060800 00000KT 4SM BR SCT050
     FM061200 VRB03KT 6SM HZ SCT050
     FM061500 VRB03KT P6SM BKN045=

USA.gov is the U.S. government's official web portal to all federal, state and local government web resources and services.